sensor_id;sensor_type;location;lat;lon;timestamp;temperature;humidity
30244;DHT22;64022;53.652;9.792;2023-05-07T00:00:19;21.70;49.70
30244;DHT22;64022;53.652;9.792;2023-05-07T00:02:45;21.70;50.20
30244;DHT22;64022;53.652;9.792;2023-05-07T00:05:10;21.70;50.20
30244;DHT22;64022;53.652;9.792;2023-05-07T00:07:36;21.70;50.20
30244;DHT22;64022;53.652;9.792;2023-05-07T00:10:02;21.80;50.30
30244;DHT22;64022;53.652;9.792;2023-05-07T00:12:28;21.80;50.30
30244;DHT22;64022;53.652;9.792;2023-05-07T00:14:57;21.80;50.30
30244;DHT22;64022;53.652;9.792;2023-05-07T00:17:22;21.80;50.30
30244;DHT22;64022;53.652;9.792;2023-05-07T00:19:48;21.80;50.30
30244;DHT22;64022;53.652;9.792;2023-05-07T00:22:14;21.80;50.20
30244;DHT22;64022;53.652;9.792;2023-05-07T00:24:39;21.80;50.30
30244;DHT22;64022;53.652;9.792;2023-05-07T00:27:05;21.70;50.20
30244;DHT22;64022;53.652;9.792;2023-05-07T00:29:30;21.80;50.30
30244;DHT22;64022;53.652;9.792;2023-05-07T00:31:56;21.80;50.30
30244;DHT22;64022;53.652;9.792;2023-05-07T00:34:22;21.80;50.30
30244;DHT22;64022;53.652;9.792;2023-05-07T00:36:47;21.80;50.30
30244;DHT22;64022;53.652;9.792;2023-05-07T00:39:13;21.80;50.40
30244;DHT22;64022;53.652;9.792;2023-05-07T00:41:39;21.80;50.40
30244;DHT22;64022;53.652;9.792;2023-05-07T00:44:04;21.80;50.40
30244;DHT22;64022;53.652;9.792;2023-05-07T00:46:30;21.80;50.90
30244;DHT22;64022;53.652;9.792;2023-05-07T00:48:57;21.80;50.40
30244;DHT22;64022;53.652;9.792;2023-05-07T00:51:23;21.80;50.40
30244;DHT22;64022;53.652;9.792;2023-05-07T00:53:49;21.80;50.40
30244;DHT22;64022;53.652;9.792;2023-05-07T00:56:15;21.80;50.40
30244;DHT22;64022;53.652;9.792;2023-05-07T00:58:41;21.70;50.40
30244;DHT22;64022;53.652;9.792;2023-05-07T01:01:06;21.80;50.50
30244;DHT22;64022;53.652;9.792;2023-05-07T01:03:32;21.80;50.50
30244;DHT22;64022;53.652;9.792;2023-05-07T01:05:59;21.80;50.50
30244;DHT22;64022;53.652;9.792;2023-05-07T01:08:25;21.80;50.50
30244;DHT22;64022;53.652;9.792;2023-05-07T01:10:54;21.70;50.50
30244;DHT22;64022;53.652;9.792;2023-05-07T01:13:20;21.70;50.50
30244;DHT22;64022;53.652;9.792;2023-05-07T01:15:46;21.80;50.60
30244;DHT22;64022;53.652;9.792;2023-05-07T01:18:11;21.80;50.60
30244;DHT22;64022;53.652;9.792;2023-05-07T01:20:37;21.70;50.60
30244;DHT22;64022;53.652;9.792;2023-05-07T01:23:03;21.80;50.70
30244;DHT22;64022;53.652;9.792;2023-05-07T01:25:29;21.70;50.60
30244;DHT22;64022;53.652;9.792;2023-05-07T01:27:55;21.80;50.70
30244;DHT22;64022;53.652;9.792;2023-05-07T01:30:21;21.70;50.30
30244;DHT22;64022;53.652;9.792;2023-05-07T01:32:58;21.70;51.30
30244;DHT22;64022;53.652;9.792;2023-05-07T01:35:29;21.80;50.80
30244;DHT22;64022;53.652;9.792;2023-05-07T01:37:56;21.80;50.90
30244;DHT22;64022;53.652;9.792;2023-05-07T01:40:23;21.80;50.90
30244;DHT22;64022;53.652;9.792;2023-05-07T01:42:50;21.80;50.90
30244;DHT22;64022;53.652;9.792;2023-05-07T01:45:16;21.80;50.90
30244;DHT22;64022;53.652;9.792;2023-05-07T01:47:42;21.80;50.90
30244;DHT22;64022;53.652;9.792;2023-05-07T01:50:09;21.80;50.90
30244;DHT22;64022;53.652;9.792;2023-05-07T01:52:36;21.80;50.90
30244;DHT22;64022;53.652;9.792;2023-05-07T01:55:02;21.80;50.90
30244;DHT22;64022;53.652;9.792;2023-05-07T01:57:28;21.70;50.90
30244;DHT22;64022;53.652;9.792;2023-05-07T01:59:53;21.80;51.00
30244;DHT22;64022;53.652;9.792;2023-05-07T02:02:19;21.80;51.00
30244;DHT22;64022;53.652;9.792;2023-05-07T02:04:45;21.80;51.00
30244;DHT22;64022;53.652;9.792;2023-05-07T02:07:10;21.80;51.00
30244;DHT22;64022;53.652;9.792;2023-05-07T02:09:36;21.80;51.00
30244;DHT22;64022;53.652;9.792;2023-05-07T02:12:01;21.80;51.10
30244;DHT22;64022;53.652;9.792;2023-05-07T02:14:27;21.80;51.10
30244;DHT22;64022;53.652;9.792;2023-05-07T02:16:52;21.70;51.00
30244;DHT22;64022;53.652;9.792;2023-05-07T02:19:18;21.80;51.10
30244;DHT22;64022;53.652;9.792;2023-05-07T02:21:46;21.80;51.10
30244;DHT22;64022;53.652;9.792;2023-05-07T02:24:12;21.80;51.10
30244;DHT22;64022;53.652;9.792;2023-05-07T02:26:37;21.80;51.10
30244;DHT22;64022;53.652;9.792;2023-05-07T02:29:03;21.80;51.20
30244;DHT22;64022;53.652;9.792;2023-05-07T02:31:28;21.70;51.10
30244;DHT22;64022;53.652;9.792;2023-05-07T02:33:54;21.80;51.20
30244;DHT22;64022;53.652;9.792;2023-05-07T02:36:19;21.80;51.20
30244;DHT22;64022;53.652;9.792;2023-05-07T02:38:45;21.80;51.20
30244;DHT22;64022;53.652;9.792;2023-05-07T02:41:10;21.80;51.20
30244;DHT22;64022;53.652;9.792;2023-05-07T02:43:36;21.80;51.30
30244;DHT22;64022;53.652;9.792;2023-05-07T02:46:03;21.80;51.30
30244;DHT22;64022;53.652;9.792;2023-05-07T02:48:29;21.80;51.30
30244;DHT22;64022;53.652;9.792;2023-05-07T02:50:55;21.70;51.30
30244;DHT22;64022;53.652;9.792;2023-05-07T02:53:20;21.80;51.30
30244;DHT22;64022;53.652;9.792;2023-05-07T02:55:46;21.80;51.30
30244;DHT22;64022;53.652;9.792;2023-05-07T02:58:11;21.80;51.30
30244;DHT22;64022;53.652;9.792;2023-05-07T03:00:37;21.70;51.30
30244;DHT22;64022;53.652;9.792;2023-05-07T03:03:02;21.80;51.30
30244;DHT22;64022;53.652;9.792;2023-05-07T03:05:28;21.80;51.40
30244;DHT22;64022;53.652;9.792;2023-05-07T03:07:53;21.70;51.30
30244;DHT22;64022;53.652;9.792;2023-05-07T03:10:19;21.80;51.40
30244;DHT22;64022;53.652;9.792;2023-05-07T03:12:45;21.80;51.40
30244;DHT22;64022;53.652;9.792;2023-05-07T03:15:10;21.80;51.40
30244;DHT22;64022;53.652;9.792;2023-05-07T03:17:38;21.80;51.40
30244;DHT22;64022;53.652;9.792;2023-05-07T03:20:04;21.80;51.40
30244;DHT22;64022;53.652;9.792;2023-05-07T03:22:29;21.70;51.40
30244;DHT22;64022;53.652;9.792;2023-05-07T03:24:55;21.80;51.40
30244;DHT22;64022;53.652;9.792;2023-05-07T03:27:20;21.80;51.50
30244;DHT22;64022;53.652;9.792;2023-05-07T03:29:46;21.80;51.50
30244;DHT22;64022;53.652;9.792;2023-05-07T03:32:12;21.80;51.50
30244;DHT22;64022;53.652;9.792;2023-05-07T03:34:37;21.80;51.50
30244;DHT22;64022;53.652;9.792;2023-05-07T03:37:03;21.80;51.50
30244;DHT22;64022;53.652;9.792;2023-05-07T03:39:28;21.70;51.50
30244;DHT22;64022;53.652;9.792;2023-05-07T03:41:54;21.80;51.50
30244;DHT22;64022;53.652;9.792;2023-05-07T03:44:19;21.80;51.50
30244;DHT22;64022;53.652;9.792;2023-05-07T03:46:45;21.70;51.50
30244;DHT22;64022;53.652;9.792;2023-05-07T03:49:10;21.80;51.60
30244;DHT22;64022;53.652;9.792;2023-05-07T03:51:36;21.80;51.60
30244;DHT22;64022;53.652;9.792;2023-05-07T03:54:02;21.80;51.60
30244;DHT22;64022;53.652;9.792;2023-05-07T03:56:27;21.80;51.60
30244;DHT22;64022;53.652;9.792;2023-05-07T03:58:53;21.80;51.60
30244;DHT22;64022;53.652;9.792;2023-05-07T04:01:19;21.80;51.60
30244;DHT22;64022;53.652;9.792;2023-05-07T04:03:45;21.80;51.60
30244;DHT22;64022;53.652;9.792;2023-05-07T04:06:10;21.80;51.70
30244;DHT22;64022;53.652;9.792;2023-05-07T04:08:36;21.80;51.60
30244;DHT22;64022;53.652;9.792;2023-05-07T04:11:01;21.80;51.70
30244;DHT22;64022;53.652;9.792;2023-05-07T04:13:27;21.80;51.70
30244;DHT22;64022;53.652;9.792;2023-05-07T04:15:54;21.80;51.70
30244;DHT22;64022;53.652;9.792;2023-05-07T04:18:20;21.80;51.70
30244;DHT22;64022;53.652;9.792;2023-05-07T04:20:49;21.80;51.70
30244;DHT22;64022;53.652;9.792;2023-05-07T04:23:15;21.70;51.70
30244;DHT22;64022;53.652;9.792;2023-05-07T04:25:41;21.80;51.70
30244;DHT22;64022;53.652;9.792;2023-05-07T04:28:07;21.70;51.70
30244;DHT22;64022;53.652;9.792;2023-05-07T04:30:32;21.80;51.70
30244;DHT22;64022;53.652;9.792;2023-05-07T04:32:58;21.80;51.70
30244;DHT22;64022;53.652;9.792;2023-05-07T04:35:23;21.80;51.70
30244;DHT22;64022;53.652;9.792;2023-05-07T04:37:49;21.80;51.70
30244;DHT22;64022;53.652;9.792;2023-05-07T04:40:15;21.80;51.70
30244;DHT22;64022;53.652;9.792;2023-05-07T04:42:41;21.80;51.80
30244;DHT22;64022;53.652;9.792;2023-05-07T04:45:07;21.80;51.80
30244;DHT22;64022;53.652;9.792;2023-05-07T04:47:34;21.80;51.80
30244;DHT22;64022;53.652;9.792;2023-05-07T04:49:59;21.80;51.80
30244;DHT22;64022;53.652;9.792;2023-05-07T04:52:25;21.80;51.80
30244;DHT22;64022;53.652;9.792;2023-05-07T04:54:50;21.80;51.80
30244;DHT22;64022;53.652;9.792;2023-05-07T04:57:16;21.80;51.80
30244;DHT22;64022;53.652;9.792;2023-05-07T04:59:43;21.80;51.90
30244;DHT22;64022;53.652;9.792;2023-05-07T05:02:10;21.80;51.90
30244;DHT22;64022;53.652;9.792;2023-05-07T05:04:36;21.70;51.80
30244;DHT22;64022;53.652;9.792;2023-05-07T05:07:02;21.80;51.90
30244;DHT22;64022;53.652;9.792;2023-05-07T05:09:29;21.80;51.90
30244;DHT22;64022;53.652;9.792;2023-05-07T05:11:55;21.80;51.90
30244;DHT22;64022;53.652;9.792;2023-05-07T05:14:20;21.80;51.90
30244;DHT22;64022;53.652;9.792;2023-05-07T05:16:46;21.70;51.90
30244;DHT22;64022;53.652;9.792;2023-05-07T05:19:11;21.80;51.90
30244;DHT22;64022;53.652;9.792;2023-05-07T05:21:37;21.80;51.90
30244;DHT22;64022;53.652;9.792;2023-05-07T05:24:02;21.80;51.90
30244;DHT22;64022;53.652;9.792;2023-05-07T05:26:28;21.80;52.00
30244;DHT22;64022;53.652;9.792;2023-05-07T05:28:53;21.70;51.90
30244;DHT22;64022;53.652;9.792;2023-05-07T05:31:19;21.80;52.00
30244;DHT22;64022;53.652;9.792;2023-05-07T05:33:44;21.80;52.00
30244;DHT22;64022;53.652;9.792;2023-05-07T05:36:10;21.80;52.00
30244;DHT22;64022;53.652;9.792;2023-05-07T05:38:37;21.80;52.00
30244;DHT22;64022;53.652;9.792;2023-05-07T05:41:02;21.80;52.00
30244;DHT22;64022;53.652;9.792;2023-05-07T05:43:28;21.80;52.10
30244;DHT22;64022;53.652;9.792;2023-05-07T05:45:55;21.80;52.10
30244;DHT22;64022;53.652;9.792;2023-05-07T05:48:21;21.80;52.10
30244;DHT22;64022;53.652;9.792;2023-05-07T05:50:46;21.80;52.10
30244;DHT22;64022;53.652;9.792;2023-05-07T05:53:12;21.80;52.10
30244;DHT22;64022;53.652;9.792;2023-05-07T05:55:37;21.70;52.00
30244;DHT22;64022;53.652;9.792;2023-05-07T05:58:03;21.80;52.10
30244;DHT22;64022;53.652;9.792;2023-05-07T06:00:29;21.70;52.00
30244;DHT22;64022;53.652;9.792;2023-05-07T06:02:55;21.80;52.10
30244;DHT22;64022;53.652;9.792;2023-05-07T06:05:21;21.70;52.10
30244;DHT22;64022;53.652;9.792;2023-05-07T06:07:46;21.70;52.10
30244;DHT22;64022;53.652;9.792;2023-05-07T06:10:12;21.80;52.10
30244;DHT22;64022;53.652;9.792;2023-05-07T06:12:37;21.80;52.10
30244;DHT22;64022;53.652;9.792;2023-05-07T06:15:04;21.80;52.10
30244;DHT22;64022;53.652;9.792;2023-05-07T06:17:29;21.80;52.20
30244;DHT22;64022;53.652;9.792;2023-05-07T06:19:55;21.80;52.20
30244;DHT22;64022;53.652;9.792;2023-05-07T06:22:21;21.80;52.20
30244;DHT22;64022;53.652;9.792;2023-05-07T06:24:47;21.80;52.20
30244;DHT22;64022;53.652;9.792;2023-05-07T06:27:12;21.80;52.20
30244;DHT22;64022;53.652;9.792;2023-05-07T06:29:38;21.80;52.20
30244;DHT22;64022;53.652;9.792;2023-05-07T06:32:11;21.80;52.20
30244;DHT22;64022;53.652;9.792;2023-05-07T06:34:37;21.70;52.10
30244;DHT22;64022;53.652;9.792;2023-05-07T06:37:03;21.80;52.20
30244;DHT22;64022;53.652;9.792;2023-05-07T06:39:29;21.80;52.20
30244;DHT22;64022;53.652;9.792;2023-05-07T06:41:54;21.80;52.20
30244;DHT22;64022;53.652;9.792;2023-05-07T06:44:20;21.80;52.80
30244;DHT22;64022;53.652;9.792;2023-05-07T06:46:46;21.80;52.20
30244;DHT22;64022;53.652;9.792;2023-05-07T06:49:15;21.80;52.30
30244;DHT22;64022;53.652;9.792;2023-05-07T06:51:40;21.80;52.30
30244;DHT22;64022;53.652;9.792;2023-05-07T06:54:06;21.80;52.30
30244;DHT22;64022;53.652;9.792;2023-05-07T06:56:32;21.80;52.30
30244;DHT22;64022;53.652;9.792;2023-05-07T06:58:59;21.80;52.40
30244;DHT22;64022;53.652;9.792;2023-05-07T07:01:25;21.80;52.90
30244;DHT22;64022;53.652;9.792;2023-05-07T07:03:51;21.80;52.30
30244;DHT22;64022;53.652;9.792;2023-05-07T07:06:16;21.80;52.30
30244;DHT22;64022;53.652;9.792;2023-05-07T07:08:42;21.80;52.40
30244;DHT22;64022;53.652;9.792;2023-05-07T07:11:08;21.80;52.40
30244;DHT22;64022;53.652;9.792;2023-05-07T07:13:34;21.70;52.30
30244;DHT22;64022;53.652;9.792;2023-05-07T07:16:00;21.80;52.40
30244;DHT22;64022;53.652;9.792;2023-05-07T07:18:25;21.80;52.40
30244;DHT22;64022;53.652;9.792;2023-05-07T07:20:51;21.80;52.40
30244;DHT22;64022;53.652;9.792;2023-05-07T07:23:16;21.70;52.30
30244;DHT22;64022;53.652;9.792;2023-05-07T07:25:42;21.80;52.40
30244;DHT22;64022;53.652;9.792;2023-05-07T07:28:07;21.70;52.30
30244;DHT22;64022;53.652;9.792;2023-05-07T07:30:33;21.80;52.40
30244;DHT22;64022;53.652;9.792;2023-05-07T07:32:58;21.70;52.30
30244;DHT22;64022;53.652;9.792;2023-05-07T07:35:31;21.80;52.40
30244;DHT22;64022;53.652;9.792;2023-05-07T07:37:57;21.80;52.50
30244;DHT22;64022;53.652;9.792;2023-05-07T07:40:23;21.80;52.50
30244;DHT22;64022;53.652;9.792;2023-05-07T07:42:48;21.80;52.50
30244;DHT22;64022;53.652;9.792;2023-05-07T07:45:14;21.80;52.50
30244;DHT22;64022;53.652;9.792;2023-05-07T07:47:40;21.80;52.50
30244;DHT22;64022;53.652;9.792;2023-05-07T07:50:06;21.80;52.50
30244;DHT22;64022;53.652;9.792;2023-05-07T07:52:32;21.80;52.50
30244;DHT22;64022;53.652;9.792;2023-05-07T07:54:57;21.80;52.50
30244;DHT22;64022;53.652;9.792;2023-05-07T07:57:23;21.80;52.40
30244;DHT22;64022;53.652;9.792;2023-05-07T07:59:49;21.80;52.40
30244;DHT22;64022;53.652;9.792;2023-05-07T08:02:15;21.80;52.40
30244;DHT22;64022;53.652;9.792;2023-05-07T08:04:41;21.80;52.40
30244;DHT22;64022;53.652;9.792;2023-05-07T08:07:11;21.80;52.40
30244;DHT22;64022;53.652;9.792;2023-05-07T08:09:39;21.80;52.50
30244;DHT22;64022;53.652;9.792;2023-05-07T08:12:06;21.80;52.40
30244;DHT22;64022;53.652;9.792;2023-05-07T08:14:32;21.80;52.40
30244;DHT22;64022;53.652;9.792;2023-05-07T08:16:58;21.80;52.40
30244;DHT22;64022;53.652;9.792;2023-05-07T08:19:23;21.80;52.40
30244;DHT22;64022;53.652;9.792;2023-05-07T08:21:49;21.80;52.40
30244;DHT22;64022;53.652;9.792;2023-05-07T08:24:15;21.80;52.50
30244;DHT22;64022;53.652;9.792;2023-05-07T08:26:41;21.80;52.50
30244;DHT22;64022;53.652;9.792;2023-05-07T08:29:07;21.80;52.50
30244;DHT22;64022;53.652;9.792;2023-05-07T08:31:33;21.90;52.70
30244;DHT22;64022;53.652;9.792;2023-05-07T08:33:58;21.80;52.60
30244;DHT22;64022;53.652;9.792;2023-05-07T08:36:24;21.80;52.60
30244;DHT22;64022;53.652;9.792;2023-05-07T08:38:51;21.90;52.70
30244;DHT22;64022;53.652;9.792;2023-05-07T08:41:17;21.90;52.70
30244;DHT22;64022;53.652;9.792;2023-05-07T08:43:47;21.90;52.80
30244;DHT22;64022;53.652;9.792;2023-05-07T08:46:17;21.90;52.80
30244;DHT22;64022;53.652;9.792;2023-05-07T08:48:44;21.90;52.90
30244;DHT22;64022;53.652;9.792;2023-05-07T08:51:14;21.90;52.90
30244;DHT22;64022;53.652;9.792;2023-05-07T08:53:41;21.90;52.90
30244;DHT22;64022;53.652;9.792;2023-05-07T08:56:08;21.90;52.90
30244;DHT22;64022;53.652;9.792;2023-05-07T08:58:34;21.90;52.90
30244;DHT22;64022;53.652;9.792;2023-05-07T09:01:04;21.90;52.90
30244;DHT22;64022;53.652;9.792;2023-05-07T09:03:31;21.90;52.90
30244;DHT22;64022;53.652;9.792;2023-05-07T09:05:56;22.00;53.00
30244;DHT22;64022;53.652;9.792;2023-05-07T09:08:25;22.00;53.00
30244;DHT22;64022;53.652;9.792;2023-05-07T09:10:52;21.90;53.00
30244;DHT22;64022;53.652;9.792;2023-05-07T09:13:17;21.90;53.00
30244;DHT22;64022;53.652;9.792;2023-05-07T09:15:43;22.00;53.10
30244;DHT22;64022;53.652;9.792;2023-05-07T09:18:09;22.00;53.10
30244;DHT22;64022;53.652;9.792;2023-05-07T09:20:36;22.00;53.20
30244;DHT22;64022;53.652;9.792;2023-05-07T09:23:02;22.00;53.20
30244;DHT22;64022;53.652;9.792;2023-05-07T09:25:30;22.00;53.20
30244;DHT22;64022;53.652;9.792;2023-05-07T09:27:55;21.90;53.30
30244;DHT22;64022;53.652;9.792;2023-05-07T09:30:21;21.90;53.40
30244;DHT22;64022;53.652;9.792;2023-05-07T09:32:46;22.00;53.50
30244;DHT22;64022;53.652;9.792;2023-05-07T09:35:16;22.00;53.60
30244;DHT22;64022;53.652;9.792;2023-05-07T09:37:46;22.00;54.20
30244;DHT22;64022;53.652;9.792;2023-05-07T09:40:22;22.00;53.80
30244;DHT22;64022;53.652;9.792;2023-05-07T09:42:48;22.00;53.80
30244;DHT22;64022;53.652;9.792;2023-05-07T09:45:15;22.00;54.00
30244;DHT22;64022;53.652;9.792;2023-05-07T09:47:43;22.00;54.10
30244;DHT22;64022;53.652;9.792;2023-05-07T09:50:12;22.00;54.10
30244;DHT22;64022;53.652;9.792;2023-05-07T09:52:40;22.00;54.80
30244;DHT22;64022;53.652;9.792;2023-05-07T09:55:07;22.00;54.30
30244;DHT22;64022;53.652;9.792;2023-05-07T09:57:33;22.00;54.40
30244;DHT22;64022;53.652;9.792;2023-05-07T09:59:59;22.10;54.60
30244;DHT22;64022;53.652;9.792;2023-05-07T10:02:29;22.10;54.50
30244;DHT22;64022;53.652;9.792;2023-05-07T10:04:56;22.10;54.70
30244;DHT22;64022;53.652;9.792;2023-05-07T10:07:24;22.00;54.60
30244;DHT22;64022;53.652;9.792;2023-05-07T10:09:50;22.10;54.70
30244;DHT22;64022;53.652;9.792;2023-05-07T10:12:17;22.10;54.80
30244;DHT22;64022;53.652;9.792;2023-05-07T10:14:43;22.00;54.70
30244;DHT22;64022;53.652;9.792;2023-05-07T10:17:11;22.00;54.30
30244;DHT22;64022;53.652;9.792;2023-05-07T10:19:37;22.00;54.90
30244;DHT22;64022;53.652;9.792;2023-05-07T10:22:05;21.90;54.40
30244;DHT22;64022;53.652;9.792;2023-05-07T10:24:36;22.00;55.10
30244;DHT22;64022;53.652;9.792;2023-05-07T10:27:05;22.00;55.20
30244;DHT22;64022;53.652;9.792;2023-05-07T10:34:54;22.10;55.40
30244;DHT22;64022;53.652;9.792;2023-05-07T10:37:20;22.00;55.40
30244;DHT22;64022;53.652;9.792;2023-05-07T10:39:46;22.00;55.40
30244;DHT22;64022;53.652;9.792;2023-05-07T10:42:14;22.00;55.50
30244;DHT22;64022;53.652;9.792;2023-05-07T10:44:40;22.10;55.60
30244;DHT22;64022;53.652;9.792;2023-05-07T10:47:15;22.00;55.50
30244;DHT22;64022;53.652;9.792;2023-05-07T10:52:21;22.00;55.00
30244;DHT22;64022;53.652;9.792;2023-05-07T10:57:40;22.00;54.60
30244;DHT22;64022;53.652;9.792;2023-05-07T11:05:31;21.90;54.30
30244;DHT22;64022;53.652;9.792;2023-05-07T11:07:57;21.90;54.30
30244;DHT22;64022;53.652;9.792;2023-05-07T11:10:23;21.80;54.10
30244;DHT22;64022;53.652;9.792;2023-05-07T11:13:08;21.80;54.00
30244;DHT22;64022;53.652;9.792;2023-05-07T11:15:36;21.80;52.70
30244;DHT22;64022;53.652;9.792;2023-05-07T11:18:02;21.70;52.10
30244;DHT22;64022;53.652;9.792;2023-05-07T11:21:01;21.60;51.40
30244;DHT22;64022;53.652;9.792;2023-05-07T11:26:09;21.40;50.80
30244;DHT22;64022;53.652;9.792;2023-05-07T11:28:42;21.40;50.70
30244;DHT22;64022;53.652;9.792;2023-05-07T11:31:09;21.30;50.00
30244;DHT22;64022;53.652;9.792;2023-05-07T11:33:36;21.20;49.60
30244;DHT22;64022;53.652;9.792;2023-05-07T11:36:05;21.20;49.70
30244;DHT22;64022;53.652;9.792;2023-05-07T11:38:34;21.10;49.60
30244;DHT22;64022;53.652;9.792;2023-05-07T11:41:00;21.10;49.30
30244;DHT22;64022;53.652;9.792;2023-05-07T11:43:27;21.10;48.80
30244;DHT22;64022;53.652;9.792;2023-05-07T11:45:53;21.00;48.80
30244;DHT22;64022;53.652;9.792;2023-05-07T11:48:19;21.00;48.60
30244;DHT22;64022;53.652;9.792;2023-05-07T11:50:53;20.90;48.50
30244;DHT22;64022;53.652;9.792;2023-05-07T11:53:25;20.90;48.60
30244;DHT22;64022;53.652;9.792;2023-05-07T11:55:55;20.90;48.30
30244;DHT22;64022;53.652;9.792;2023-05-07T11:58:22;20.90;48.70
30244;DHT22;64022;53.652;9.792;2023-05-07T12:00:49;20.90;49.00
30244;DHT22;64022;53.652;9.792;2023-05-07T12:03:15;20.90;49.20
30244;DHT22;64022;53.652;9.792;2023-05-07T12:05:40;20.90;49.20
30244;DHT22;64022;53.652;9.792;2023-05-07T12:08:07;21.00;49.60
30244;DHT22;64022;53.652;9.792;2023-05-07T12:10:33;21.00;49.70
30244;DHT22;64022;53.652;9.792;2023-05-07T12:12:58;21.00;50.00
30244;DHT22;64022;53.652;9.792;2023-05-07T12:15:24;21.10;50.00
30244;DHT22;64022;53.652;9.792;2023-05-07T12:17:49;21.10;50.00
30244;DHT22;64022;53.652;9.792;2023-05-07T12:20:15;21.10;50.20
30244;DHT22;64022;53.652;9.792;2023-05-07T12:22:42;21.20;50.30
30244;DHT22;64022;53.652;9.792;2023-05-07T12:25:08;21.20;50.40
30244;DHT22;64022;53.652;9.792;2023-05-07T12:27:37;21.20;50.70
30244;DHT22;64022;53.652;9.792;2023-05-07T12:30:03;21.20;50.80
30244;DHT22;64022;53.652;9.792;2023-05-07T12:32:29;21.30;51.00
30244;DHT22;64022;53.652;9.792;2023-05-07T12:34:54;21.30;51.20
30244;DHT22;64022;53.652;9.792;2023-05-07T12:37:24;21.40;51.50
30244;DHT22;64022;53.652;9.792;2023-05-07T12:40:10;21.40;50.60
30244;DHT22;64022;53.652;9.792;2023-05-07T12:42:38;21.40;50.10
30244;DHT22;64022;53.652;9.792;2023-05-07T12:45:15;21.30;49.40
30244;DHT22;64022;53.652;9.792;2023-05-07T12:47:44;21.20;49.50
30244;DHT22;64022;53.652;9.792;2023-05-07T12:50:10;21.10;49.10
30244;DHT22;64022;53.652;9.792;2023-05-07T12:52:36;21.10;48.80
30244;DHT22;64022;53.652;9.792;2023-05-07T12:55:06;21.10;48.80
30244;DHT22;64022;53.652;9.792;2023-05-07T12:57:38;21.00;48.70
30244;DHT22;64022;53.652;9.792;2023-05-07T13:00:05;21.00;48.70
30244;DHT22;64022;53.652;9.792;2023-05-07T13:02:36;21.00;49.00
30244;DHT22;64022;53.652;9.792;2023-05-07T13:05:03;21.00;49.20
30244;DHT22;64022;53.652;9.792;2023-05-07T13:07:29;21.00;49.40
30244;DHT22;64022;53.652;9.792;2023-05-07T13:09:54;21.00;49.60
30244;DHT22;64022;53.652;9.792;2023-05-07T13:12:20;21.00;49.70
30244;DHT22;64022;53.652;9.792;2023-05-07T13:14:46;21.00;49.80
30244;DHT22;64022;53.652;9.792;2023-05-07T13:17:11;21.10;49.90
30244;DHT22;64022;53.652;9.792;2023-05-07T13:19:37;21.10;50.00
30244;DHT22;64022;53.652;9.792;2023-05-07T13:22:03;21.10;50.10
30244;DHT22;64022;53.652;9.792;2023-05-07T13:24:29;21.20;50.30
30244;DHT22;64022;53.652;9.792;2023-05-07T13:26:54;21.20;50.30
30244;DHT22;64022;53.652;9.792;2023-05-07T13:29:20;21.20;50.40
30244;DHT22;64022;53.652;9.792;2023-05-07T13:31:47;21.20;50.50
30244;DHT22;64022;53.652;9.792;2023-05-07T13:34:13;21.30;50.70
30244;DHT22;64022;53.652;9.792;2023-05-07T13:36:38;21.30;50.80
30244;DHT22;64022;53.652;9.792;2023-05-07T13:39:05;21.30;50.90
30244;DHT22;64022;53.652;9.792;2023-05-07T13:41:31;21.30;51.10
30244;DHT22;64022;53.652;9.792;2023-05-07T13:43:57;21.30;51.20
30244;DHT22;64022;53.652;9.792;2023-05-07T13:46:22;21.30;51.40
30244;DHT22;64022;53.652;9.792;2023-05-07T13:48:48;21.30;51.50
30244;DHT22;64022;53.652;9.792;2023-05-07T13:51:13;21.40;51.70
30244;DHT22;64022;53.652;9.792;2023-05-07T13:53:39;21.40;51.80
30244;DHT22;64022;53.652;9.792;2023-05-07T13:56:04;21.40;51.90
30244;DHT22;64022;53.652;9.792;2023-05-07T13:58:30;21.40;52.10
30244;DHT22;64022;53.652;9.792;2023-05-07T14:00:56;21.40;52.30
30244;DHT22;64022;53.652;9.792;2023-05-07T14:03:21;21.40;52.50
30244;DHT22;64022;53.652;9.792;2023-05-07T14:05:47;21.50;52.60
30244;DHT22;64022;53.652;9.792;2023-05-07T14:08:13;21.50;52.80
30244;DHT22;64022;53.652;9.792;2023-05-07T14:10:39;21.50;52.90
30244;DHT22;64022;53.652;9.792;2023-05-07T14:13:05;21.50;53.10
30244;DHT22;64022;53.652;9.792;2023-05-07T14:15:31;21.50;53.30
30244;DHT22;64022;53.652;9.792;2023-05-07T14:17:58;21.50;53.40
30244;DHT22;64022;53.652;9.792;2023-05-07T14:20:24;21.50;53.40
30244;DHT22;64022;53.652;9.792;2023-05-07T14:22:50;21.50;53.50
30244;DHT22;64022;53.652;9.792;2023-05-07T14:25:16;21.50;53.50
30244;DHT22;64022;53.652;9.792;2023-05-07T14:27:41;21.50;53.40
30244;DHT22;64022;53.652;9.792;2023-05-07T14:30:08;21.50;53.40
30244;DHT22;64022;53.652;9.792;2023-05-07T14:32:34;21.50;54.00
30244;DHT22;64022;53.652;9.792;2023-05-07T14:34:59;21.50;53.40
30244;DHT22;64022;53.652;9.792;2023-05-07T14:37:25;21.50;53.50
30244;DHT22;64022;53.652;9.792;2023-05-07T14:39:51;21.50;53.50
30244;DHT22;64022;53.652;9.792;2023-05-07T14:42:17;21.50;53.20
30244;DHT22;64022;53.652;9.792;2023-05-07T14:44:42;21.50;53.50
30244;DHT22;64022;53.652;9.792;2023-05-07T14:47:08;21.60;53.40
30244;DHT22;64022;53.652;9.792;2023-05-07T14:49:34;21.50;53.40
30244;DHT22;64022;53.652;9.792;2023-05-07T14:52:00;21.50;53.40
30244;DHT22;64022;53.652;9.792;2023-05-07T14:54:25;21.60;53.60
30244;DHT22;64022;53.652;9.792;2023-05-07T14:56:51;21.60;53.50
30244;DHT22;64022;53.652;9.792;2023-05-07T14:59:17;21.60;53.50
30244;DHT22;64022;53.652;9.792;2023-05-07T15:01:49;21.60;53.50
30244;DHT22;64022;53.652;9.792;2023-05-07T15:04:15;21.60;53.40
30244;DHT22;64022;53.652;9.792;2023-05-07T15:06:40;21.50;53.40
30244;DHT22;64022;53.652;9.792;2023-05-07T15:09:06;21.50;53.40
30244;DHT22;64022;53.652;9.792;2023-05-07T15:11:33;21.50;53.40
30244;DHT22;64022;53.652;9.792;2023-05-07T15:13:58;21.50;53.40
30244;DHT22;64022;53.652;9.792;2023-05-07T15:16:24;21.60;53.40
30244;DHT22;64022;53.652;9.792;2023-05-07T15:18:50;21.50;53.40
30244;DHT22;64022;53.652;9.792;2023-05-07T15:21:15;21.50;53.40
30244;DHT22;64022;53.652;9.792;2023-05-07T15:23:41;21.60;53.50
30244;DHT22;64022;53.652;9.792;2023-05-07T15:26:06;21.60;53.40
30244;DHT22;64022;53.652;9.792;2023-05-07T15:28:33;21.50;53.30
30244;DHT22;64022;53.652;9.792;2023-05-07T15:30:59;21.60;53.50
30244;DHT22;64022;53.652;9.792;2023-05-07T15:33:24;21.50;53.40
30244;DHT22;64022;53.652;9.792;2023-05-07T15:35:50;21.60;53.50
30244;DHT22;64022;53.652;9.792;2023-05-07T15:38:16;21.50;54.00
30244;DHT22;64022;53.652;9.792;2023-05-07T15:40:41;21.60;53.50
30244;DHT22;64022;53.652;9.792;2023-05-07T15:43:08;21.60;53.50